Lake Isabella, Michigan
Current Conditions -  °F | °C
As of 4:15 AM on Friday 19 Dec 2014 (Local Time) from KMOP Reporting Station
Overcast Overcast  
Wind Chill: 23°   Ceiling: 1500
Heat Index: 23°   Visibility: 10mi
Dew Point: 19°   Wind: 3mph
Humidity: 85%   Direction: 10°N
Pressure: 30.23"   Gusts: NA
Location:  43.6807°N, 84.9799°W
Report Text: KMOP 190915Z AUTO 01003KT 10SM OVC015 M05/M07 A3023 RMK AO2 T10501071
Loading
Personal Weather Stations






























Interactive Weather Map New forecast layout! Learn more

10-Day Weather Forecast

Advertisements
Track Severe Weather on mobile